createdAt,value
2019-02-10T00:00:07.787Z,1001.84
2019-02-10T00:01:07.755Z,1001.84
2019-02-10T00:02:07.734Z,1001.76
2019-02-10T00:03:07.713Z,1001.80
2019-02-10T00:04:07.705Z,1001.69
2019-02-10T00:05:07.692Z,1001.71
2019-02-10T00:06:07.701Z,1001.76
2019-02-10T00:07:07.674Z,1001.77
2019-02-10T00:08:07.663Z,1001.87
2019-02-10T00:09:07.652Z,1001.83
2019-02-10T00:10:07.634Z,1001.80
2019-02-10T00:11:07.644Z,1001.81
2019-02-10T00:12:07.616Z,1001.76
2019-02-10T00:13:07.600Z,1001.73
2019-02-10T00:14:07.590Z,1001.75
2019-02-10T00:15:07.584Z,1001.75
2019-02-10T00:16:07.591Z,1001.75
2019-02-10T00:17:07.559Z,1001.78
2019-02-10T00:18:07.547Z,1001.77
2019-02-10T00:19:07.540Z,1001.77
2019-02-10T00:20:07.527Z,1001.81
2019-02-10T00:21:07.538Z,1001.79
2019-02-10T00:22:07.508Z,1001.81
2019-02-10T00:23:07.494Z,1001.70
2019-02-10T00:24:07.483Z,1001.79
2019-02-10T00:25:07.468Z,1001.81
2019-02-10T00:26:07.479Z,1001.77
2019-02-10T00:27:07.446Z,1001.78
2019-02-10T00:28:07.437Z,1001.80
2019-02-10T00:29:07.419Z,1001.85
2019-02-10T00:30:07.411Z,1001.84
2019-02-10T00:31:07.405Z,1001.82
2019-02-10T00:32:07.410Z,1001.80
2019-02-10T00:33:07.388Z,1001.90
2019-02-10T00:34:07.373Z,1001.78
2019-02-10T00:35:07.358Z,1001.78
2019-02-10T00:36:07.346Z,1001.80
2019-02-10T00:37:07.353Z,1001.85
2019-02-10T00:38:07.321Z,1001.80
2019-02-10T00:39:07.304Z,1001.79
2019-02-10T00:40:07.309Z,1001.80
2019-02-10T00:41:07.293Z,1001.78
2019-02-10T00:42:07.296Z,1001.82
2019-02-10T00:43:07.390Z,1001.77
2019-02-10T00:44:07.253Z,1001.76
2019-02-10T00:45:07.242Z,1001.72
2019-02-10T00:46:07.231Z,1001.78
2019-02-10T00:47:07.252Z,1001.76
2019-02-10T00:48:07.207Z,1001.80
2019-02-10T00:49:07.203Z,1001.76
2019-02-10T00:50:07.184Z,1001.80
2019-02-10T00:51:07.170Z,1001.88
2019-02-10T00:52:07.171Z,1001.81
2019-02-10T00:53:07.176Z,1001.82
2019-02-10T00:54:07.138Z,1001.84
2019-02-10T00:55:07.130Z,1001.80
2019-02-10T00:56:07.122Z,1001.80
2019-02-10T00:57:07.119Z,1001.77
2019-02-10T00:58:07.145Z,1001.83
2019-02-10T00:59:07.096Z,1001.79
2019-02-10T01:00:07.070Z,1001.76
2019-02-10T01:01:07.058Z,1001.78
2019-02-10T01:02:07.048Z,1001.81
2019-02-10T01:03:07.060Z,1001.81
2019-02-10T01:04:07.030Z,1001.79
2019-02-10T01:05:07.011Z,1001.79
2019-02-10T01:06:07.008Z,1001.81
2019-02-10T01:07:06.994Z,1001.78
2019-02-10T01:08:06.997Z,1001.78
2019-02-10T01:09:06.968Z,1001.75
2019-02-10T01:10:06.970Z,1001.74
2019-02-10T01:11:06.956Z,1001.76
2019-02-10T01:12:06.936Z,1001.78
2019-02-10T01:13:06.950Z,1001.74
2019-02-10T01:14:06.916Z,1001.76
2019-02-10T01:15:06.898Z,1001.70
2019-02-10T01:16:06.886Z,1001.66
2019-02-10T01:17:06.891Z,1001.66
2019-02-10T01:18:06.868Z,1001.66
2019-02-10T01:19:06.880Z,1001.64
2019-02-10T01:20:06.844Z,1001.62
2019-02-10T01:21:06.832Z,1001.65
2019-02-10T01:22:06.818Z,1001.65
2019-02-10T01:23:06.806Z,1001.63
2019-02-10T01:24:06.834Z,1001.57
2019-02-10T01:25:06.799Z,1001.61
2019-02-10T01:26:06.782Z,1001.57
2019-02-10T01:27:06.767Z,1001.57
2019-02-10T01:28:06.748Z,1001.55
2019-02-10T01:29:06.757Z,1001.56
2019-02-10T01:30:06.735Z,1001.55
2019-02-10T01:31:06.718Z,1001.54
2019-02-10T01:32:06.704Z,1001.51
2019-02-10T01:33:06.693Z,1001.54
2019-02-10T01:34:06.706Z,1001.55
2019-02-10T01:35:06.685Z,1001.57
2019-02-10T01:36:06.662Z,1001.55
2019-02-10T01:37:06.648Z,1001.53
2019-02-10T01:38:06.640Z,1001.54
2019-02-10T01:39:06.644Z,1001.51
2019-02-10T01:40:06.618Z,1001.46
2019-02-10T01:41:06.598Z,1001.50
2019-02-10T01:42:06.590Z,1001.49
2019-02-10T01:43:06.576Z,1001.49
2019-02-10T01:44:06.592Z,1001.52
2019-02-10T01:45:06.560Z,1001.49
2019-02-10T01:46:06.540Z,1001.45
2019-02-10T01:47:06.539Z,1001.47
2019-02-10T01:48:06.522Z,1001.49
2019-02-10T01:49:06.534Z,1001.44
2019-02-10T01:50:06.502Z,1001.46
2019-02-10T01:51:06.484Z,1001.43
2019-02-10T01:52:06.477Z,1001.43
2019-02-10T01:53:06.463Z,1001.42
2019-02-10T01:54:06.479Z,1001.40
2019-02-10T01:55:06.432Z,1001.37
2019-02-10T01:56:06.429Z,1001.42
2019-02-10T01:57:06.412Z,1001.42
2019-02-10T01:58:06.405Z,1001.49
2019-02-10T01:59:06.415Z,1001.44
2019-02-10T02:00:06.384Z,1001.43
2019-02-10T02:01:06.371Z,1001.40
2019-02-10T02:02:06.363Z,1001.42
2019-02-10T02:03:06.356Z,1001.43
2019-02-10T02:04:06.376Z,1001.42
2019-02-10T02:05:06.334Z,1001.37
2019-02-10T02:06:06.316Z,1001.40
2019-02-10T02:07:06.338Z,1001.38
2019-02-10T02:08:06.289Z,1001.35
2019-02-10T02:09:06.289Z,1001.36
2019-02-10T02:10:06.293Z,1001.31
2019-02-10T02:11:06.261Z,1001.34
2019-02-10T02:12:06.244Z,1001.34
2019-02-10T02:13:06.231Z,1001.33
2019-02-10T02:14:06.221Z,1001.30
2019-02-10T02:15:06.235Z,1001.32
2019-02-10T02:16:06.195Z,1001.27
2019-02-10T02:17:06.190Z,1001.34
2019-02-10T02:18:06.180Z,1001.24
2019-02-10T02:19:06.160Z,1001.26
2019-02-10T02:20:06.171Z,1001.22
2019-02-10T02:21:06.299Z,1001.22
2019-02-10T02:22:06.165Z,1001.27
2019-02-10T02:23:06.183Z,1001.24
2019-02-10T02:24:06.197Z,1001.26
2019-02-10T02:25:06.117Z,1001.28
2019-02-10T02:26:06.097Z,1001.24
2019-02-10T02:27:06.073Z,1001.27
2019-02-10T02:28:06.063Z,1001.21
2019-02-10T02:29:06.052Z,1001.21
2019-02-10T02:30:06.044Z,1001.20
2019-02-10T02:31:06.049Z,1001.16
2019-02-10T02:32:06.012Z,1001.17
2019-02-10T02:33:05.999Z,1001.21
2019-02-10T02:34:05.996Z,1001.24
2019-02-10T02:35:05.990Z,1001.20
2019-02-10T02:36:05.991Z,1001.24
2019-02-10T02:37:08.129Z,1001.22
2019-02-10T02:38:05.947Z,1001.19
2019-02-10T02:39:05.939Z,1001.14
2019-02-10T02:40:05.930Z,1001.15
2019-02-10T02:41:05.930Z,1001.07
2019-02-10T02:42:05.900Z,1001.10
2019-02-10T02:43:05.889Z,1001.06
2019-02-10T02:44:05.878Z,1001.05
2019-02-10T02:45:07.696Z,1001.06
2019-02-10T02:46:05.882Z,1001.06
2019-02-10T02:47:05.853Z,1001.06
2019-02-10T02:48:05.832Z,1001.04
2019-02-10T02:49:05.821Z,1000.99
2019-02-10T02:50:05.803Z,1000.96
2019-02-10T02:51:05.813Z,1000.99
2019-02-10T02:52:05.780Z,1000.92
2019-02-10T02:53:05.787Z,1000.94
2019-02-10T02:54:05.759Z,1000.94
2019-02-10T02:55:05.748Z,1000.93
2019-02-10T02:56:05.762Z,1000.94
2019-02-10T02:57:05.730Z,1000.92
2019-02-10T02:58:05.715Z,1000.92
2019-02-10T02:59:05.699Z,1000.89
2019-02-10T03:00:05.695Z,1000.91
2019-02-10T03:01:05.699Z,1000.90
2019-02-10T03:02:05.673Z,1000.89
2019-02-10T03:03:05.654Z,1000.83
2019-02-10T03:04:05.662Z,1000.83
2019-02-10T03:05:05.631Z,1000.81
2019-02-10T03:06:05.647Z,1000.79
2019-02-10T03:07:05.613Z,1000.76
2019-02-10T03:08:05.611Z,1000.72
2019-02-10T03:09:05.589Z,1000.74
2019-02-10T03:10:05.573Z,1000.76
2019-02-10T03:11:05.599Z,1000.74
2019-02-10T03:12:05.555Z,1000.69
2019-02-10T03:13:05.550Z,1000.68
2019-02-10T03:14:05.534Z,1000.66
2019-02-10T03:15:05.517Z,1000.69
2019-02-10T03:16:05.508Z,1000.66
2019-02-10T03:17:05.509Z,1000.68
2019-02-10T03:18:05.488Z,1000.66
2019-02-10T03:19:05.477Z,1000.60
2019-02-10T03:20:05.459Z,1000.58
2019-02-10T03:21:05.445Z,1000.61
2019-02-10T03:22:05.458Z,1000.62
2019-02-10T03:23:05.422Z,1000.57
2019-02-10T03:24:05.410Z,1000.62
2019-02-10T03:25:05.401Z,1000.59
2019-02-10T03:26:05.397Z,1000.60
2019-02-10T03:27:05.399Z,1000.58
2019-02-10T03:28:05.378Z,1000.60
2019-02-10T03:29:05.354Z,1000.53
2019-02-10T03:30:05.345Z,1000.59
2019-02-10T03:31:05.339Z,1000.53
2019-02-10T03:32:05.357Z,1000.55
2019-02-10T03:33:05.315Z,1000.55
2019-02-10T03:34:05.305Z,1000.57
2019-02-10T03:35:05.291Z,1000.53
2019-02-10T03:36:05.276Z,1000.52
2019-02-10T03:37:05.278Z,1000.45
2019-02-10T03:38:05.290Z,1000.51
2019-02-10T03:39:05.242Z,1000.51
2019-02-10T03:40:05.233Z,1000.48
2019-02-10T03:41:05.220Z,1000.53
2019-02-10T03:42:05.215Z,1000.50
2019-02-10T03:43:05.223Z,1000.43
2019-02-10T03:44:05.190Z,1000.44
2019-02-10T03:45:05.178Z,1000.41
2019-02-10T03:46:05.168Z,1000.36
2019-02-10T03:47:05.159Z,1000.38
2019-02-10T03:48:05.161Z,1000.36
2019-02-10T03:49:05.144Z,1000.25
2019-02-10T03:50:05.117Z,1000.30
2019-02-10T03:51:05.104Z,1000.31
2019-02-10T03:52:05.095Z,1000.26
2019-02-10T03:53:05.118Z,1000.33
2019-02-10T03:54:05.075Z,1000.30
2019-02-10T03:55:05.070Z,1000.28
2019-02-10T03:56:05.047Z,1000.30
2019-02-10T03:57:05.033Z,1000.29
2019-02-10T03:58:05.024Z,1000.31
2019-02-10T03:59:05.036Z,1000.28
2019-02-10T04:00:05.002Z,1000.19
2019-02-10T04:01:05.005Z,1000.31
2019-02-10T04:02:04.978Z,1000.30
2019-02-10T04:03:04.973Z,1000.28
2019-02-10T04:04:04.978Z,1000.24
2019-02-10T04:05:04.949Z,1000.17
2019-02-10T04:06:04.938Z,1000.13
2019-02-10T04:07:04.933Z,1000.10
2019-02-10T04:08:04.914Z,1000.14
2019-02-10T04:09:04.928Z,1000.07
2019-02-10T04:10:04.888Z,1000.08
2019-02-10T04:11:05.105Z,1000.05
2019-02-10T04:12:04.874Z,1000.07
2019-02-10T04:13:04.947Z,1000.00
2019-02-10T04:14:04.860Z,1000.05
2019-02-10T04:15:04.837Z,1000.03
2019-02-10T04:16:04.830Z,999.98
2019-02-10T04:17:04.823Z,999.93
2019-02-10T04:18:04.812Z,999.98
2019-02-10T04:19:04.802Z,999.98
2019-02-10T04:20:04.779Z,999.97
2019-02-10T04:21:04.772Z,999.95
2019-02-10T04:22:04.784Z,999.94
2019-02-10T04:23:04.742Z,999.98
2019-02-10T04:24:04.753Z,999.98
2019-02-10T04:25:04.724Z,999.93
2019-02-10T04:26:04.722Z,999.95
2019-02-10T04:27:04.722Z,999.91
2019-02-10T04:28:04.692Z,999.86
2019-02-10T04:29:04.712Z,999.90
2019-02-10T04:30:04.671Z,999.85
2019-02-10T04:31:04.660Z,999.88
2019-02-10T04:32:04.649Z,999.81
2019-02-10T04:33:04.638Z,999.85
2019-02-10T04:34:04.623Z,999.89
2019-02-10T04:35:04.627Z,999.86
2019-02-10T04:36:04.599Z,999.79
2019-02-10T04:37:04.596Z,999.83
2019-02-10T04:38:04.593Z,999.78
2019-02-10T04:39:04.565Z,999.80
2019-02-10T04:40:04.581Z,999.78
2019-02-10T04:41:04.698Z,999.79
2019-02-10T04:42:04.544Z,999.77
2019-02-10T04:43:04.518Z,999.79
2019-02-10T04:44:04.514Z,999.76
2019-02-10T04:45:04.533Z,999.76
2019-02-10T04:46:04.488Z,999.72
2019-02-10T04:47:04.475Z,999.77
2019-02-10T04:48:04.472Z,999.74
2019-02-10T04:49:04.462Z,999.76
2019-02-10T04:50:04.446Z,999.71
2019-02-10T04:51:04.450Z,999.67
2019-02-10T04:52:04.427Z,999.67
2019-02-10T04:53:04.409Z,999.65
2019-02-10T04:54:04.401Z,999.69
2019-02-10T04:55:04.384Z,999.68
2019-02-10T04:56:04.393Z,999.63
2019-02-10T04:57:04.370Z,999.60
2019-02-10T04:58:04.356Z,999.62
2019-02-10T04:59:04.342Z,999.59
2019-02-10T05:00:04.331Z,999.58
2019-02-10T05:01:04.344Z,999.59
2019-02-10T05:02:04.311Z,999.56
2019-02-10T05:03:04.296Z,999.53
2019-02-10T05:04:04.289Z,999.53
2019-02-10T05:05:04.277Z,999.57
2019-02-10T05:06:04.288Z,999.52
2019-02-10T05:07:04.257Z,999.54
2019-02-10T05:08:04.250Z,999.46
2019-02-10T05:09:04.237Z,999.51
2019-02-10T05:10:04.222Z,999.49
2019-02-10T05:11:04.308Z,999.49
2019-02-10T05:12:04.207Z,999.47
2019-02-10T05:13:04.187Z,999.45
2019-02-10T05:14:04.181Z,999.40
2019-02-10T05:15:04.165Z,999.42
2019-02-10T05:16:04.161Z,999.39
2019-02-10T05:17:04.174Z,999.38
2019-02-10T05:18:04.133Z,999.36
2019-02-10T05:19:04.163Z,999.36
2019-02-10T05:20:04.110Z,999.27
2019-02-10T05:21:04.106Z,999.29
2019-02-10T05:22:04.108Z,999.27
2019-02-10T05:23:04.084Z,999.27
2019-02-10T05:24:04.063Z,999.29
2019-02-10T05:25:04.063Z,999.26
2019-02-10T05:26:04.042Z,999.28
2019-02-10T05:27:04.070Z,999.25
2019-02-10T05:28:04.020Z,999.23
2019-02-10T05:29:04.014Z,999.20
2019-02-10T05:30:03.999Z,999.20
2019-02-10T05:31:03.988Z,999.16
2019-02-10T05:32:03.982Z,999.18
2019-02-10T05:33:04.051Z,999.11
2019-02-10T05:34:03.958Z,999.09
2019-02-10T05:35:03.947Z,999.09
2019-02-10T05:36:03.932Z,999.07
2019-02-10T05:37:03.940Z,999.02
2019-02-10T05:38:04.680Z,999.01
2019-02-10T05:39:03.902Z,998.96
2019-02-10T05:40:03.908Z,999.04
2019-02-10T05:41:04.195Z,998.97
2019-02-10T05:42:03.862Z,998.98
2019-02-10T05:43:03.871Z,998.96
2019-02-10T05:44:03.853Z,999.00
2019-02-10T05:45:03.840Z,998.93
2019-02-10T05:46:03.828Z,998.91
2019-02-10T05:47:03.812Z,998.90
2019-02-10T05:48:03.841Z,998.92
2019-02-10T05:49:03.793Z,998.87
2019-02-10T05:50:03.784Z,998.86
2019-02-10T05:51:03.778Z,998.83
2019-02-10T05:52:03.757Z,998.80
2019-02-10T05:53:03.751Z,998.80
2019-02-10T05:54:03.752Z,998.73
2019-02-10T05:55:03.726Z,998.71
2019-02-10T05:56:03.714Z,998.72
2019-02-10T05:57:03.707Z,998.68
2019-02-10T05:58:03.691Z,998.69
2019-02-10T05:59:03.700Z,998.63
2019-02-10T06:00:03.670Z,998.64
2019-02-10T06:01:03.658Z,998.57
2019-02-10T06:02:03.660Z,998.56
2019-02-10T06:03:03.633Z,998.48
2019-02-10T06:04:03.627Z,998.51
2019-02-10T06:05:03.616Z,998.48
2019-02-10T06:06:03.602Z,998.47
2019-02-10T06:07:03.622Z,998.48
2019-02-10T06:08:12.662Z,998.50
2019-02-10T06:09:04.615Z,998.46
2019-02-10T06:10:03.552Z,998.41
2019-02-10T06:11:03.551Z,998.45
2019-02-10T06:12:03.539Z,998.41
2019-02-10T06:13:03.536Z,998.36
2019-02-10T06:14:03.543Z,998.35
2019-02-10T06:15:03.503Z,998.38
2019-02-10T06:16:03.493Z,998.34
2019-02-10T06:17:03.490Z,998.33
2019-02-10T06:18:03.475Z,998.25
2019-02-10T06:19:03.458Z,998.21
2019-02-10T06:20:03.465Z,998.24
2019-02-10T06:21:03.438Z,998.22
2019-02-10T06:22:03.423Z,998.16
2019-02-10T06:23:03.413Z,998.19
2019-02-10T06:24:03.405Z,998.18
2019-02-10T06:25:03.415Z,998.18
2019-02-10T06:26:03.385Z,998.16
2019-02-10T06:27:03.367Z,998.16
2019-02-10T06:28:03.357Z,998.20
2019-02-10T06:29:03.339Z,998.16
2019-02-10T06:30:03.353Z,998.14
2019-02-10T06:31:03.323Z,998.14
2019-02-10T06:32:03.319Z,998.10
2019-02-10T06:33:03.302Z,998.13
2019-02-10T06:34:03.293Z,998.09
2019-02-10T06:35:03.297Z,998.05
2019-02-10T06:36:03.272Z,998.05
2019-02-10T06:37:03.255Z,998.06
2019-02-10T06:38:03.254Z,998.01
2019-02-10T06:39:03.239Z,998.01
2019-02-10T06:40:03.237Z,998.02
2019-02-10T06:41:03.219Z,997.99
2019-02-10T06:42:03.227Z,997.92
2019-02-10T06:43:03.229Z,997.95
2019-02-10T06:44:03.178Z,997.88
2019-02-10T06:45:03.187Z,997.86
2019-02-10T06:46:03.155Z,997.86
2019-02-10T06:47:03.150Z,997.91
2019-02-10T06:48:03.135Z,997.87
2019-02-10T06:49:03.121Z,997.80
2019-02-10T06:50:03.140Z,997.89
2019-02-10T06:51:03.089Z,997.84
2019-02-10T06:52:03.096Z,997.89
2019-02-10T06:53:03.074Z,997.87
2019-02-10T06:54:03.061Z,997.81
2019-02-10T06:55:03.065Z,997.88
2019-02-10T06:56:03.137Z,997.85
2019-02-10T06:57:03.027Z,997.84
2019-02-10T06:58:03.020Z,997.86
2019-02-10T06:59:03.008Z,997.82
2019-02-10T07:00:03.027Z,997.87
2019-02-10T07:01:02.991Z,997.80
2019-02-10T07:02:02.980Z,997.82
2019-02-10T07:03:02.963Z,997.81
2019-02-10T07:04:02.949Z,997.81
2019-02-10T07:05:02.943Z,997.74
2019-02-10T07:06:02.959Z,997.73
2019-02-10T07:07:02.919Z,997.76
2019-02-10T07:08:02.908Z,997.75
2019-02-10T07:09:02.899Z,997.73
2019-02-10T07:10:02.891Z,997.69
2019-02-10T07:11:02.891Z,997.67
2019-02-10T07:12:02.865Z,997.67
2019-02-10T07:13:02.853Z,997.58
2019-02-10T07:14:02.850Z,997.52
2019-02-10T07:15:02.839Z,997.45
2019-02-10T07:16:02.840Z,997.47
2019-02-10T07:17:02.823Z,997.50
2019-02-10T07:18:02.800Z,997.42
2019-02-10T07:19:02.783Z,997.42
2019-02-10T07:20:02.771Z,997.41
2019-02-10T07:21:02.785Z,997.35
2019-02-10T07:22:02.761Z,997.36
2019-02-10T07:23:02.737Z,997.36
2019-02-10T07:24:02.730Z,997.30
2019-02-10T07:25:02.738Z,997.34
2019-02-10T07:26:02.738Z,997.36
2019-02-10T07:27:02.695Z,997.32
2019-02-10T07:28:02.699Z,997.30
2019-02-10T07:29:02.701Z,997.26
2019-02-10T07:30:02.671Z,997.19
2019-02-10T07:31:02.670Z,997.18
2019-02-10T07:32:02.638Z,997.18
2019-02-10T07:33:02.630Z,997.14
2019-02-10T07:34:02.621Z,997.14
2019-02-10T07:35:02.614Z,997.11
2019-02-10T07:36:02.607Z,997.11
2019-02-10T07:37:02.586Z,997.12
2019-02-10T07:38:02.580Z,997.08
2019-02-10T07:39:02.559Z,997.06
2019-02-10T07:40:02.554Z,997.01
2019-02-10T07:41:02.564Z,997.00
2019-02-10T07:42:02.538Z,997.00
2019-02-10T07:43:02.516Z,996.95
2019-02-10T07:44:02.506Z,996.89
2019-02-10T07:45:02.499Z,996.93
2019-02-10T07:46:02.526Z,996.85
2019-02-10T07:47:02.469Z,996.90
2019-02-10T07:48:02.449Z,996.85
2019-02-10T07:49:02.442Z,996.85
2019-02-10T07:50:02.470Z,996.79
2019-02-10T07:51:02.425Z,996.76
2019-02-10T07:52:02.424Z,996.75
2019-02-10T07:53:02.410Z,996.69
2019-02-10T07:54:03.669Z,996.66
2019-02-10T07:55:02.399Z,996.61
2019-02-10T07:56:02.363Z,996.56
2019-02-10T07:57:02.409Z,996.52
2019-02-10T07:58:02.342Z,996.51
2019-02-10T07:59:02.334Z,996.46
2019-02-10T08:00:02.324Z,996.46
2019-02-10T08:01:02.512Z,996.57
2019-02-10T08:02:02.383Z,996.44
2019-02-10T08:03:02.284Z,996.45
2019-02-10T08:04:02.327Z,996.47
2019-02-10T08:05:02.260Z,996.41
2019-02-10T08:06:02.248Z,996.42
2019-02-10T08:07:02.266Z,996.41
2019-02-10T08:08:02.243Z,996.38
2019-02-10T08:09:02.217Z,996.38
2019-02-10T08:10:02.218Z,996.40
2019-02-10T08:11:02.192Z,996.33
2019-02-10T08:12:02.181Z,996.34
2019-02-10T08:13:02.196Z,996.34
2019-02-10T08:14:02.166Z,996.35
2019-02-10T08:15:02.147Z,996.35
2019-02-10T08:16:02.134Z,996.32
2019-02-10T08:17:02.131Z,996.34
2019-02-10T08:18:02.135Z,996.30
2019-02-10T08:19:02.136Z,996.32
2019-02-10T08:20:02.109Z,996.32
2019-02-10T08:21:02.087Z,996.32
2019-02-10T08:22:02.066Z,996.31
2019-02-10T08:23:02.065Z,996.26
2019-02-10T08:24:02.144Z,996.27
2019-02-10T08:25:02.043Z,996.23
2019-02-10T08:26:02.028Z,996.23
2019-02-10T08:27:02.024Z,996.15
2019-02-10T08:28:02.036Z,996.16
2019-02-10T08:29:01.987Z,996.16
2019-02-10T08:30:02.001Z,996.12
2019-02-10T08:31:01.976Z,996.11
2019-02-10T08:32:01.950Z,996.07
2019-02-10T08:33:01.943Z,996.02
2019-02-10T08:34:01.947Z,996.01
2019-02-10T08:35:01.925Z,995.98
2019-02-10T08:36:01.902Z,995.98
2019-02-10T08:37:01.888Z,995.94
2019-02-10T08:38:01.890Z,995.94
2019-02-10T08:39:01.881Z,995.85
2019-02-10T08:40:01.865Z,995.83
2019-02-10T08:41:01.844Z,995.79
2019-02-10T08:42:01.829Z,995.77
2019-02-10T08:43:01.825Z,995.72
2019-02-10T08:44:01.850Z,995.69
2019-02-10T08:45:01.811Z,995.67
2019-02-10T08:46:01.792Z,995.62
2019-02-10T08:47:01.782Z,995.59
2019-02-10T08:48:01.783Z,995.57
2019-02-10T08:49:01.759Z,995.54
2019-02-10T08:50:01.762Z,995.48
2019-02-10T08:51:01.738Z,995.47
2019-02-10T08:52:01.719Z,995.42
2019-02-10T08:53:01.720Z,995.35
2019-02-10T08:54:01.730Z,995.29
2019-02-10T08:55:02.508Z,995.24
2019-02-10T08:56:01.675Z,995.17
2019-02-10T08:57:01.688Z,995.12
2019-02-10T08:58:01.660Z,995.05
2019-02-10T08:59:01.637Z,995.01
2019-02-10T09:00:01.658Z,995.00
2019-02-10T09:01:01.620Z,994.95
2019-02-10T09:02:01.820Z,994.92
2019-02-10T09:03:01.596Z,994.89
2019-02-10T09:04:01.623Z,994.86
2019-02-10T09:05:01.571Z,994.77
2019-02-10T09:06:01.577Z,994.82
2019-02-10T09:07:01.567Z,994.77
2019-02-10T09:08:01.538Z,994.71
2019-02-10T09:09:02.810Z,994.66
2019-02-10T09:10:01.539Z,994.62
2019-02-10T09:11:01.541Z,994.51
2019-02-10T09:12:01.530Z,994.57
2019-02-10T09:13:01.469Z,994.55
2019-02-10T09:14:01.471Z,994.51
2019-02-10T09:15:01.460Z,994.50
2019-02-10T09:16:01.483Z,994.46
2019-02-10T09:17:01.437Z,994.41
2019-02-10T09:18:01.422Z,994.42
2019-02-10T09:19:01.418Z,994.34
2019-02-10T09:20:01.420Z,994.28
2019-02-10T09:21:01.494Z,994.20
2019-02-10T09:22:01.384Z,994.20
2019-02-10T09:23:01.362Z,994.18
2019-02-10T09:24:01.351Z,994.17
2019-02-10T09:25:01.347Z,994.06
2019-02-10T09:26:01.353Z,994.04
2019-02-10T09:27:01.323Z,993.92
2019-02-10T09:28:01.296Z,993.91
2019-02-10T09:29:01.293Z,993.91
2019-02-10T09:30:01.285Z,993.89
2019-02-10T09:31:01.300Z,993.81
2019-02-10T09:32:01.266Z,993.79
2019-02-10T09:33:01.247Z,993.74
2019-02-10T09:34:01.236Z,993.69
2019-02-10T09:35:01.257Z,993.71
2019-02-10T09:36:01.215Z,993.69
2019-02-10T09:37:01.237Z,993.64
2019-02-10T09:38:01.189Z,993.58
2019-02-10T09:39:01.240Z,993.59
2019-02-10T09:40:01.175Z,993.50
2019-02-10T09:41:01.166Z,993.50
2019-02-10T09:42:01.162Z,993.49
2019-02-10T09:43:01.134Z,993.52
2019-02-10T09:44:01.124Z,993.44
2019-02-10T09:45:01.108Z,993.45
2019-02-10T09:46:01.099Z,993.35
2019-02-10T09:47:01.150Z,993.34
2019-02-10T09:48:01.096Z,993.29
2019-02-10T09:49:01.119Z,993.23
2019-02-10T09:50:01.049Z,993.18
2019-02-10T09:51:01.043Z,993.17
2019-02-10T09:52:01.149Z,993.12
2019-02-10T09:53:01.031Z,993.08
2019-02-10T09:54:01.033Z,993.00
2019-02-10T09:55:01.055Z,992.90
2019-02-10T09:56:00.993Z,992.98
2019-02-10T09:57:00.988Z,992.90
2019-02-10T09:58:00.975Z,992.94
2019-02-10T09:59:00.955Z,992.92
2019-02-10T10:00:00.935Z,992.97
2019-02-10T10:01:00.936Z,992.74
2019-02-10T10:02:00.910Z,992.74
2019-02-10T10:03:00.928Z,992.69
2019-02-10T10:04:00.952Z,992.70
2019-02-10T10:05:00.893Z,992.73
2019-02-10T10:06:00.867Z,992.65
2019-02-10T10:07:00.868Z,992.62
2019-02-10T10:08:00.891Z,992.55
2019-02-10T10:09:00.845Z,992.60
2019-02-10T10:10:00.839Z,992.58
2019-02-10T10:11:00.815Z,992.56
2019-02-10T10:12:00.804Z,992.51
2019-02-10T10:13:00.789Z,992.51
2019-02-10T10:14:00.812Z,992.42
2019-02-10T10:15:00.770Z,992.44
2019-02-10T10:16:00.760Z,992.35
2019-02-10T10:17:00.749Z,992.23
2019-02-10T10:18:00.749Z,992.25
2019-02-10T10:19:00.884Z,992.13
2019-02-10T10:20:00.714Z,992.07
2019-02-10T10:21:00.943Z,992.04
2019-02-10T10:22:00.696Z,992.02
2019-02-10T10:23:00.674Z,992.02
2019-02-10T10:24:00.713Z,991.97
2019-02-10T10:25:00.876Z,991.88
2019-02-10T10:26:00.804Z,991.82
2019-02-10T10:27:00.671Z,991.81
2019-02-10T10:28:00.623Z,991.84
2019-02-10T10:29:00.603Z,991.81
2019-02-10T10:30:01.981Z,991.80
2019-02-10T10:31:00.589Z,991.74
2019-02-10T10:32:00.578Z,991.68
2019-02-10T10:33:00.569Z,991.67
2019-02-10T10:34:00.764Z,991.61
2019-02-10T10:35:00.584Z,991.61
2019-02-10T10:36:00.526Z,991.57
2019-02-10T10:37:00.527Z,991.51
2019-02-10T10:38:00.522Z,991.42
2019-02-10T10:39:00.563Z,991.35
2019-02-10T10:40:00.501Z,991.24
2019-02-10T10:41:00.484Z,991.29
2019-02-10T10:42:00.475Z,991.23
2019-02-10T10:43:00.452Z,991.13
2019-02-10T10:44:00.431Z,991.16
2019-02-10T10:45:00.555Z,991.17
2019-02-10T10:46:00.777Z,991.01
2019-02-10T10:47:00.402Z,990.96
2019-02-10T10:48:00.414Z,990.87
2019-02-10T10:49:00.379Z,990.82
2019-02-10T10:50:00.373Z,990.82
2019-02-10T10:51:00.380Z,990.82
2019-02-10T10:52:00.342Z,990.75
2019-02-10T10:53:00.351Z,990.71
2019-02-10T10:54:00.321Z,990.64
2019-02-10T10:55:00.372Z,990.62
2019-02-10T10:56:00.331Z,990.60
2019-02-10T10:57:00.295Z,990.52
2019-02-10T10:58:00.285Z,990.54
2019-02-10T10:59:00.264Z,990.58
2019-02-10T11:00:00.254Z,990.53
2019-02-10T11:01:00.267Z,990.47
2019-02-10T11:02:00.233Z,990.48
2019-02-10T11:03:00.219Z,990.41
2019-02-10T11:04:00.238Z,990.43
2019-02-10T11:05:00.268Z,990.28
2019-02-10T11:06:00.238Z,990.33
2019-02-10T11:07:00.205Z,990.29
2019-02-10T11:08:00.170Z,990.30
2019-02-10T11:09:00.325Z,990.26
2019-02-10T11:10:00.193Z,990.22
2019-02-10T11:11:00.155Z,990.28
2019-02-10T11:12:00.119Z,990.24
2019-02-10T11:13:00.124Z,990.19
2019-02-10T11:14:00.093Z,990.18
2019-02-10T11:15:00.240Z,990.19
2019-02-10T11:16:00.110Z,990.13
2019-02-10T11:17:00.067Z,990.05
2019-02-10T11:18:00.048Z,990.06
2019-02-10T11:19:00.039Z,990.04
2019-02-10T11:20:00.028Z,989.97
2019-02-10T11:21:00.182Z,989.90
2019-02-10T11:22:00.033Z,989.84
2019-02-10T11:23:00.041Z,989.83
2019-02-10T11:23:59.995Z,989.89
2019-02-10T11:24:59.970Z,989.88
2019-02-10T11:25:59.988Z,989.90
2019-02-10T11:26:59.980Z,989.92
2019-02-10T11:27:59.942Z,989.87
2019-02-10T11:28:59.990Z,989.80
2019-02-10T11:29:59.930Z,989.75
2019-02-10T11:30:59.901Z,989.60
2019-02-10T11:31:59.937Z,989.48
2019-02-10T11:32:59.874Z,989.52
2019-02-10T11:33:59.862Z,989.56
2019-02-10T11:34:59.860Z,989.61
2019-02-10T11:35:59.855Z,989.57
2019-02-10T11:36:59.865Z,989.56
2019-02-10T11:37:59.820Z,989.53
2019-02-10T11:38:59.808Z,989.54
2019-02-10T11:39:59.795Z,989.53
2019-02-10T11:40:59.815Z,989.53
2019-02-10T11:41:59.789Z,989.45
2019-02-10T11:43:00.087Z,989.49
2019-02-10T11:43:59.765Z,989.34
2019-02-10T11:44:59.806Z,989.14
2019-02-10T11:45:59.778Z,989.12
2019-02-10T11:46:59.736Z,989.07
2019-02-10T11:47:59.735Z,989.13
2019-02-10T11:48:59.688Z,989.28
2019-02-10T11:49:59.695Z,989.25
2019-02-10T11:51:00.460Z,989.17
2019-02-10T11:51:59.734Z,989.20
2019-02-10T11:52:59.643Z,989.11
2019-02-10T11:53:59.637Z,988.94
2019-02-10T11:54:59.663Z,988.84
2019-02-10T11:55:59.615Z,988.71
2019-02-10T11:56:59.625Z,988.74
2019-02-10T11:57:59.607Z,988.79
2019-02-10T11:58:59.587Z,988.85
2019-02-10T11:59:59.576Z,988.89
2019-02-10T12:00:59.556Z,988.86
2019-02-10T12:01:59.531Z,988.82
2019-02-10T12:02:59.646Z,988.79
2019-02-10T12:03:59.520Z,988.77
2019-02-10T12:04:59.522Z,988.78
2019-02-10T12:05:59.498Z,988.73
2019-02-10T12:06:59.490Z,988.78
2019-02-10T12:07:59.498Z,988.65
2019-02-10T12:08:59.463Z,988.62
2019-02-10T12:09:59.458Z,988.64
2019-02-10T12:10:59.650Z,988.55
2019-02-10T12:11:59.430Z,988.60
2019-02-10T12:12:59.450Z,988.57
2019-02-10T12:13:59.404Z,988.64
2019-02-10T12:14:59.394Z,988.59
2019-02-10T12:15:59.388Z,988.55
2019-02-10T12:16:59.369Z,988.47
2019-02-10T12:17:59.385Z,988.44
2019-02-10T12:18:59.361Z,988.38
2019-02-10T12:19:59.346Z,988.38